createdAt,value
2018-01-30T00:00:42.958Z,3.70
2018-01-30T00:03:10.497Z,4.50
2018-01-30T00:05:38.211Z,2.97
2018-01-30T00:08:05.707Z,4.40
2018-01-30T00:10:33.430Z,3.07
2018-01-30T00:13:01.191Z,2.87
2018-01-30T00:15:28.699Z,3.30
2018-01-30T00:17:56.414Z,3.77
2018-01-30T00:20:24.175Z,3.13
2018-01-30T00:22:51.811Z,3.00
2018-01-30T00:25:19.354Z,3.83
2018-01-30T00:27:47.776Z,2.50
2018-01-30T00:30:15.531Z,3.07
2018-01-30T00:32:43.048Z,3.47
2018-01-30T00:35:10.548Z,2.70
2018-01-30T00:37:38.272Z,3.23
2018-01-30T00:40:05.776Z,2.43
2018-01-30T00:42:33.305Z,2.73
2018-01-30T00:45:01.194Z,2.73
2018-01-30T00:47:28.715Z,3.97
2018-01-30T00:49:56.411Z,2.67
2018-01-30T00:52:23.915Z,1.90
2018-01-30T00:54:51.631Z,1.87
2018-01-30T00:57:19.139Z,2.30
2018-01-30T00:59:46.642Z,4.20
2018-01-30T01:02:14.310Z,3.20
2018-01-30T01:04:41.811Z,2.87
2018-01-30T01:07:09.507Z,3.40
2018-01-30T01:09:36.999Z,3.97
2018-01-30T01:12:04.507Z,4.07
2018-01-30T01:14:32.032Z,4.20
2018-01-30T01:16:59.675Z,3.43
2018-01-30T01:19:27.168Z,4.40
2018-01-30T01:21:54.674Z,5.60
2018-01-30T01:24:23.272Z,3.43
2018-01-30T01:26:50.975Z,4.00
2018-01-30T01:29:18.482Z,3.70
2018-01-30T01:31:45.977Z,3.33
2018-01-30T01:34:13.527Z,6.07
2018-01-30T01:36:41.158Z,2.10
2018-01-30T01:39:08.919Z,3.37
2018-01-30T01:41:36.642Z,2.73
2018-01-30T01:44:04.155Z,3.07
2018-01-30T01:46:31.881Z,3.00
2018-01-30T01:49:00.541Z,3.40
2018-01-30T01:51:28.284Z,3.67
2018-01-30T01:53:55.818Z,2.10
2018-01-30T01:56:23.571Z,3.20
2018-01-30T01:58:51.343Z,2.60
2018-01-30T02:01:18.888Z,3.43
2018-01-30T02:03:47.184Z,3.07
2018-01-30T02:06:14.708Z,3.30
2018-01-30T02:08:42.210Z,3.50
2018-01-30T02:11:09.814Z,2.33
2018-01-30T02:13:37.934Z,2.63
2018-01-30T02:16:05.442Z,3.93
2018-01-30T02:18:33.206Z,3.70
2018-01-30T02:21:00.688Z,2.87
2018-01-30T02:23:28.335Z,5.57
2018-01-30T02:25:55.838Z,2.90
2018-01-30T02:28:23.574Z,2.63
2018-01-30T02:30:51.348Z,2.70
2018-01-30T02:33:18.875Z,2.53
2018-01-30T02:35:46.390Z,2.53
2018-01-30T02:38:14.727Z,3.50
2018-01-30T02:40:43.037Z,2.73
2018-01-30T02:43:10.547Z,2.80
2018-01-30T02:45:38.046Z,3.77
2018-01-30T02:48:05.691Z,2.87
2018-01-30T02:50:33.453Z,2.70
2018-01-30T02:53:00.948Z,3.27
2018-01-30T02:55:28.676Z,2.80
2018-01-30T02:57:56.435Z,2.33
2018-01-30T03:00:23.943Z,3.50
2018-01-30T03:02:51.435Z,3.50
2018-01-30T03:05:19.118Z,3.40
2018-01-30T03:07:46.616Z,3.60
2018-01-30T03:10:14.114Z,2.50
2018-01-30T03:12:41.787Z,2.27
2018-01-30T03:15:09.291Z,4.00
2018-01-30T03:17:36.989Z,2.47
2018-01-30T03:20:04.479Z,2.53
2018-01-30T03:22:32.227Z,2.87
2018-01-30T03:24:59.990Z,4.10
2018-01-30T03:27:27.721Z,3.57
2018-01-30T03:29:55.239Z,2.50
2018-01-30T03:32:22.740Z,2.73
2018-01-30T03:34:50.238Z,2.53
2018-01-30T03:37:17.888Z,1.27
2018-01-30T03:39:45.964Z,3.70
2018-01-30T03:42:13.476Z,3.30
2018-01-30T03:44:41.187Z,2.63
2018-01-30T03:47:08.691Z,2.97
2018-01-30T03:49:36.190Z,3.80
2018-01-30T03:52:03.862Z,2.87
2018-01-30T03:54:31.364Z,2.43
2018-01-30T03:56:59.078Z,2.97
2018-01-30T03:59:26.842Z,3.40
2018-01-30T04:01:54.342Z,2.53
2018-01-30T04:04:22.073Z,2.37
2018-01-30T04:06:49.599Z,3.00
2018-01-30T04:09:17.283Z,2.40
2018-01-30T04:11:45.061Z,3.20
2018-01-30T04:14:12.555Z,4.27
2018-01-30T04:16:40.270Z,3.03
2018-01-30T04:19:08.025Z,3.70
2018-01-30T04:21:35.526Z,2.90
2018-01-30T04:24:03.227Z,2.57
2018-01-30T04:26:31.235Z,1.90
2018-01-30T04:28:58.743Z,2.87
2018-01-30T04:31:26.227Z,3.03
2018-01-30T04:33:53.730Z,3.67
2018-01-30T04:36:22.022Z,4.40
2018-01-30T04:38:49.521Z,2.63
2018-01-30T04:41:17.286Z,2.67
2018-01-30T04:43:45.334Z,2.50
2018-01-30T04:46:13.118Z,3.10
2018-01-30T04:48:40.656Z,3.10
2018-01-30T04:51:08.136Z,4.10
2018-01-30T04:53:36.116Z,2.33
2018-01-30T04:56:03.626Z,4.17
2018-01-30T04:58:31.290Z,4.17
2018-01-30T05:00:59.086Z,2.70
2018-01-30T05:03:26.591Z,2.53
2018-01-30T05:05:55.249Z,3.30
2018-01-30T05:08:22.991Z,3.63
2018-01-30T05:10:50.508Z,3.07
2018-01-30T05:13:18.015Z,3.70
2018-01-30T05:15:45.685Z,3.33
2018-01-30T05:18:13.626Z,4.40
2018-01-30T05:20:41.123Z,3.53
2018-01-30T05:23:08.630Z,3.40
2018-01-30T05:25:36.138Z,3.43
2018-01-30T05:28:03.875Z,3.10
2018-01-30T05:30:31.375Z,2.47
2018-01-30T05:32:59.068Z,3.50
2018-01-30T05:35:26.855Z,3.30
2018-01-30T05:37:54.367Z,4.00
2018-01-30T05:40:21.876Z,4.20
2018-01-30T05:42:49.508Z,3.83
2018-01-30T05:45:17.302Z,4.47
2018-01-30T05:47:44.794Z,3.70
2018-01-30T05:50:13.118Z,2.90
2018-01-30T05:52:40.603Z,3.33
2018-01-30T05:55:08.111Z,4.27
2018-01-30T05:57:35.730Z,3.83
2018-01-30T06:00:03.261Z,5.03
2018-01-30T06:02:30.767Z,3.20
2018-01-30T06:04:58.262Z,3.30
2018-01-30T06:07:25.771Z,4.60
2018-01-30T06:09:54.039Z,3.63
2018-01-30T06:12:21.667Z,2.80
2018-01-30T06:14:49.231Z,2.77
2018-01-30T06:17:16.718Z,4.03
2018-01-30T06:19:44.447Z,3.03
2018-01-30T06:22:12.256Z,4.70
2018-01-30T06:24:39.769Z,3.23
2018-01-30T06:27:07.737Z,3.17
2018-01-30T06:29:35.503Z,3.20
2018-01-30T06:32:03.000Z,2.73
2018-01-30T06:34:30.599Z,2.87
2018-01-30T06:36:58.152Z,3.50
2018-01-30T06:39:25.943Z,3.63
2018-01-30T06:41:53.443Z,3.93
2018-01-30T06:44:21.833Z,2.90
2018-01-30T06:46:49.539Z,2.67
2018-01-30T06:49:17.039Z,4.73
2018-01-30T06:51:44.552Z,3.80
2018-01-30T06:54:12.787Z,2.97
2018-01-30T06:56:41.089Z,3.17
2018-01-30T06:59:08.575Z,3.30
2018-01-30T07:01:36.133Z,4.00
2018-01-30T07:04:03.879Z,3.20
2018-01-30T07:06:31.382Z,2.80
2018-01-30T07:08:59.227Z,2.97
2018-01-30T07:11:26.733Z,2.80
2018-01-30T07:13:54.232Z,3.60
2018-01-30T07:16:21.786Z,3.13
2018-01-30T07:18:49.551Z,3.20
2018-01-30T07:21:17.064Z,3.87
2018-01-30T07:23:45.357Z,3.47
2018-01-30T07:26:12.860Z,2.23
2018-01-30T07:28:40.373Z,2.60
2018-01-30T07:31:08.056Z,2.80
2018-01-30T07:33:35.556Z,2.83
2018-01-30T07:36:03.059Z,3.97
2018-01-30T07:38:30.764Z,3.27
2018-01-30T07:40:59.348Z,3.83
2018-01-30T07:43:27.399Z,2.73
2018-01-30T07:45:54.899Z,3.20
2018-01-30T07:48:23.296Z,3.90
2018-01-30T07:50:50.787Z,2.93
2018-01-30T07:53:18.304Z,4.07
2018-01-30T07:55:45.951Z,3.20
2018-01-30T07:58:13.456Z,3.80
2018-01-30T08:00:41.403Z,4.17
2018-01-30T08:03:09.292Z,3.90
2018-01-30T08:05:36.786Z,4.37
2018-01-30T08:08:04.495Z,3.53
2018-01-30T08:10:31.982Z,3.73
2018-01-30T08:12:59.486Z,3.67
2018-01-30T08:15:26.994Z,3.30
2018-01-30T08:17:54.508Z,2.80
2018-01-30T08:20:22.063Z,3.77
2018-01-30T08:22:49.571Z,4.57
2018-01-30T08:25:17.324Z,4.00
2018-01-30T08:27:45.078Z,5.53
2018-01-30T08:30:12.854Z,3.50
2018-01-30T08:32:40.961Z,4.83
2018-01-30T08:35:08.560Z,3.30
2018-01-30T08:37:36.321Z,2.87
2018-01-30T08:40:03.804Z,5.03
2018-01-30T08:42:31.306Z,3.00
2018-01-30T08:44:58.807Z,3.47
2018-01-30T08:47:26.352Z,4.50
2018-01-30T08:49:53.852Z,5.20
2018-01-30T08:52:21.365Z,3.47
2018-01-30T08:54:50.323Z,3.90
2018-01-30T08:57:19.002Z,3.53
2018-01-30T08:59:47.271Z,5.10
2018-01-30T09:02:15.880Z,4.33
2018-01-30T09:04:43.386Z,4.17
2018-01-30T09:07:11.487Z,5.30
2018-01-30T09:09:39.215Z,4.07
2018-01-30T09:12:06.715Z,4.20
2018-01-30T09:14:34.418Z,6.63
2018-01-30T09:17:01.916Z,4.63
2018-01-30T09:19:29.659Z,4.90
2018-01-30T09:21:57.368Z,4.50
2018-01-30T09:24:24.886Z,4.80
2018-01-30T09:26:52.372Z,4.07
2018-01-30T09:29:20.105Z,4.40
2018-01-30T09:31:47.600Z,4.00
2018-01-30T09:34:16.266Z,3.00
2018-01-30T09:36:44.616Z,4.03
2018-01-30T09:39:12.227Z,4.43
2018-01-30T09:41:39.748Z,3.70
2018-01-30T09:44:07.297Z,4.40
2018-01-30T09:46:34.786Z,3.70
2018-01-30T09:49:02.511Z,4.40
2018-01-30T09:51:30.012Z,3.13
2018-01-30T09:53:57.747Z,4.83
2018-01-30T09:56:25.255Z,4.83
2018-01-30T09:58:52.750Z,4.50
2018-01-30T10:01:20.409Z,4.17
2018-01-30T10:03:47.906Z,3.10
2018-01-30T10:06:16.271Z,3.83
2018-01-30T10:08:43.967Z,4.93
2018-01-30T10:11:12.459Z,4.50
2018-01-30T10:13:39.965Z,3.67
2018-01-30T10:16:07.603Z,4.23
2018-01-30T10:18:35.113Z,3.60
2018-01-30T10:21:02.623Z,3.77
2018-01-30T10:23:30.119Z,3.93
2018-01-30T10:25:58.666Z,4.43
2018-01-30T10:28:26.171Z,2.90
2018-01-30T10:30:54.496Z,3.60
2018-01-30T10:33:22.031Z,3.40
2018-01-30T10:35:49.535Z,3.97
2018-01-30T10:38:17.099Z,3.30
2018-01-30T10:40:44.914Z,2.77
2018-01-30T10:43:12.415Z,3.70
2018-01-30T10:45:39.925Z,3.77
2018-01-30T10:48:07.425Z,3.63
2018-01-30T10:50:35.063Z,4.40
2018-01-30T10:53:02.558Z,3.60
2018-01-30T10:55:30.288Z,4.03
2018-01-30T10:57:58.051Z,3.17
2018-01-30T11:00:25.964Z,3.30
2018-01-30T11:02:54.234Z,4.50
2018-01-30T11:05:21.726Z,3.03
2018-01-30T11:07:49.236Z,6.20
2018-01-30T11:10:17.664Z,3.53
2018-01-30T11:12:45.171Z,3.80
2018-01-30T11:15:12.665Z,4.20
2018-01-30T11:17:40.171Z,3.70
2018-01-30T11:20:07.682Z,4.87
2018-01-30T11:22:35.380Z,4.43
2018-01-30T11:25:02.883Z,4.90
2018-01-30T11:27:31.304Z,4.13
2018-01-30T11:30:00.207Z,5.47
2018-01-30T11:32:27.971Z,4.03
2018-01-30T11:34:55.728Z,5.80
2018-01-30T11:37:23.444Z,3.40
2018-01-30T11:39:50.956Z,3.10
2018-01-30T11:42:18.506Z,2.70
2018-01-30T11:44:46.174Z,3.63
2018-01-30T11:47:13.680Z,3.50
2018-01-30T11:49:41.440Z,3.40
2018-01-30T11:52:09.313Z,5.10
2018-01-30T11:54:37.838Z,4.50
2018-01-30T11:57:05.378Z,5.00
2018-01-30T11:59:33.059Z,5.40
2018-01-30T12:02:00.583Z,4.40
2018-01-30T12:04:28.586Z,4.37
2018-01-30T12:06:56.718Z,4.00
2018-01-30T12:09:24.390Z,3.60
2018-01-30T12:11:51.892Z,4.17
2018-01-30T12:14:19.387Z,3.43
2018-01-30T12:16:47.115Z,4.10
2018-01-30T12:19:15.783Z,3.20
2018-01-30T12:21:43.560Z,3.90
2018-01-30T12:24:11.070Z,4.47
2018-01-30T12:26:38.730Z,3.50
2018-01-30T12:29:06.234Z,3.70
2018-01-30T12:31:33.734Z,2.90
2018-01-30T12:34:01.235Z,3.40
2018-01-30T12:36:28.739Z,2.50
2018-01-30T12:38:58.027Z,2.83
2018-01-30T12:41:25.619Z,3.40
2018-01-30T12:43:53.132Z,3.23
2018-01-30T12:46:20.667Z,3.30
2018-01-30T12:48:48.625Z,2.97
2018-01-30T12:51:16.114Z,2.77
2018-01-30T12:53:43.840Z,4.23
2018-01-30T12:56:11.343Z,4.53
2018-01-30T12:58:38.859Z,3.10
2018-01-30T13:01:06.363Z,2.20
2018-01-30T13:03:33.867Z,2.70
2018-01-30T13:06:01.649Z,3.73
2018-01-30T13:08:29.192Z,2.93
2018-01-30T13:10:56.706Z,3.50
2018-01-30T13:13:24.216Z,2.80
2018-01-30T13:15:52.720Z,3.23
2018-01-30T13:18:20.200Z,2.40
2018-01-30T13:20:47.731Z,2.63
2018-01-30T13:23:15.591Z,2.70
2018-01-30T13:25:43.098Z,3.00
2018-01-30T13:28:11.635Z,2.30
2018-01-30T13:30:39.142Z,3.00
2018-01-30T13:33:07.438Z,2.73
2018-01-30T13:35:34.991Z,2.97
2018-01-30T13:38:03.279Z,2.60
2018-01-30T13:40:30.801Z,3.90
2018-01-30T13:42:58.297Z,3.27
2018-01-30T13:45:25.805Z,3.30
2018-01-30T13:47:53.316Z,3.10
2018-01-30T13:50:20.891Z,2.30
2018-01-30T13:52:48.412Z,3.23
2018-01-30T13:55:15.903Z,2.67
2018-01-30T13:57:43.540Z,2.17
2018-01-30T14:00:11.030Z,2.93
2018-01-30T14:02:38.535Z,2.50
2018-01-30T14:05:06.238Z,2.60
2018-01-30T14:07:34.003Z,4.50
2018-01-30T14:10:01.516Z,3.50
2018-01-30T14:12:29.018Z,3.30
2018-01-30T14:14:57.134Z,2.97
2018-01-30T14:17:25.403Z,1.93
2018-01-30T14:19:52.907Z,2.23
2018-01-30T14:22:20.410Z,3.10
2018-01-30T14:24:48.035Z,2.90
2018-01-30T14:27:15.545Z,2.40
2018-01-30T14:29:43.043Z,2.20
2018-01-30T14:32:10.793Z,3.27
2018-01-30T14:34:38.441Z,2.57
2018-01-30T14:37:06.231Z,2.93
2018-01-30T14:39:33.888Z,3.70
2018-01-30T14:42:01.380Z,2.93
2018-01-30T14:44:28.923Z,2.90
2018-01-30T14:46:56.431Z,2.00
2018-01-30T14:49:24.143Z,2.30
2018-01-30T14:51:51.715Z,2.00
2018-01-30T14:54:19.359Z,2.10
2018-01-30T14:56:46.862Z,1.93
2018-01-30T14:59:14.546Z,2.27
2018-01-30T15:01:42.056Z,2.60
2018-01-30T15:04:09.559Z,2.10
2018-01-30T15:06:37.069Z,2.97
2018-01-30T15:09:04.614Z,2.43
2018-01-30T15:11:32.183Z,2.03
2018-01-30T15:13:59.683Z,2.67
2018-01-30T15:16:27.361Z,1.90
2018-01-30T15:18:55.175Z,4.00
2018-01-30T15:21:22.676Z,2.20
2018-01-30T15:23:50.256Z,2.43
2018-01-30T15:26:17.743Z,1.97
2018-01-30T15:28:45.694Z,1.90
2018-01-30T15:31:13.247Z,3.10
2018-01-30T15:33:40.819Z,3.50
2018-01-30T15:36:08.314Z,2.80
2018-01-30T15:38:36.253Z,2.63
2018-01-30T15:41:03.809Z,2.20
2018-01-30T15:43:31.311Z,3.50
2018-01-30T15:45:59.020Z,2.80
2018-01-30T15:48:26.791Z,3.57
2018-01-30T15:50:54.291Z,3.47
2018-01-30T15:53:21.978Z,3.43
2018-01-30T15:55:49.765Z,3.93
2018-01-30T15:58:17.774Z,2.93
2018-01-30T16:00:45.269Z,3.63
2018-01-30T16:03:12.843Z,3.20
2018-01-30T16:05:40.334Z,3.00
2018-01-30T16:08:07.969Z,3.20
2018-01-30T16:10:35.773Z,2.60
2018-01-30T16:13:03.438Z,3.47
2018-01-30T16:15:30.929Z,2.73
2018-01-30T16:17:58.423Z,3.03
2018-01-30T16:20:25.929Z,2.33
2018-01-30T16:22:53.425Z,2.80
2018-01-30T16:25:21.559Z,3.20
2018-01-30T16:27:49.059Z,2.13
2018-01-30T16:30:16.563Z,2.93
2018-01-30T16:32:44.508Z,4.07
2018-01-30T16:35:12.119Z,2.80
2018-01-30T16:37:39.620Z,3.00
2018-01-30T16:40:07.376Z,3.13
2018-01-30T16:45:25.662Z,3.20
2018-01-30T16:47:53.388Z,2.63
2018-01-30T16:50:20.894Z,2.30
2018-01-30T16:52:48.581Z,2.60
2018-01-30T16:55:16.097Z,2.30
2018-01-30T16:57:43.581Z,3.17
2018-01-30T17:00:11.098Z,2.47
2018-01-30T17:02:38.611Z,4.00
2018-01-30T17:05:06.504Z,2.07
2018-01-30T17:07:34.267Z,2.00
2018-01-30T17:10:02.031Z,2.10
2018-01-30T17:12:29.530Z,2.40
2018-01-30T17:14:57.043Z,3.50
2018-01-30T17:17:24.552Z,2.70
2018-01-30T17:19:52.815Z,3.50
2018-01-30T17:22:20.563Z,2.40
2018-01-30T17:24:48.323Z,2.40
2018-01-30T17:27:16.071Z,2.30
2018-01-30T17:29:43.805Z,2.67
2018-01-30T17:32:11.306Z,3.30
2018-01-30T17:34:38.818Z,2.77
2018-01-30T17:37:06.506Z,2.87
2018-01-30T17:39:34.031Z,2.87
2018-01-30T17:42:01.529Z,2.87
2018-01-30T17:44:29.188Z,2.67
2018-01-30T17:46:56.947Z,2.43
2018-01-30T17:49:24.718Z,2.90
2018-01-30T17:51:52.233Z,2.63
2018-01-30T17:54:19.933Z,3.07
2018-01-30T17:56:47.786Z,2.80
2018-01-30T17:59:15.471Z,2.97
2018-01-30T18:01:42.979Z,3.07
2018-01-30T18:04:10.591Z,2.10
2018-01-30T18:06:38.134Z,3.27
2018-01-30T18:09:05.777Z,3.43
2018-01-30T18:11:33.285Z,3.37
2018-01-30T18:14:00.810Z,3.20
2018-01-30T18:16:28.582Z,3.60
2018-01-30T18:18:56.109Z,2.57
2018-01-30T18:21:23.811Z,4.60
2018-01-30T18:23:51.318Z,4.60
2018-01-30T18:26:18.824Z,3.30
2018-01-30T18:28:46.404Z,3.30
2018-01-30T18:31:14.019Z,3.03
2018-01-30T18:33:41.522Z,3.43
2018-01-30T18:36:09.786Z,3.73
2018-01-30T18:38:37.544Z,4.30
2018-01-30T18:41:05.302Z,4.03
2018-01-30T18:43:32.811Z,3.23
2018-01-30T18:46:00.314Z,4.10
2018-01-30T18:48:27.819Z,5.23
2018-01-30T18:50:56.266Z,32.53
2018-01-30T18:53:23.780Z,4.53
2018-01-30T18:55:51.567Z,10.93
2018-01-30T18:58:19.099Z,3.93
2018-01-30T19:00:46.760Z,3.53
2018-01-30T19:03:14.561Z,4.07
2018-01-30T19:05:42.305Z,4.40
2018-01-30T19:08:10.209Z,4.20
2018-01-30T19:10:37.830Z,3.90
2018-01-30T19:13:05.617Z,5.90
2018-01-30T19:15:33.134Z,4.87
2018-01-30T19:18:00.794Z,4.20
2018-01-30T19:20:29.108Z,5.00
2018-01-30T19:22:56.601Z,3.90
2018-01-30T19:25:25.103Z,5.10
2018-01-30T19:27:52.803Z,4.97
2018-01-30T19:30:20.538Z,5.27
2018-01-30T19:32:48.043Z,4.80
2018-01-30T19:35:15.554Z,4.77
2018-01-30T19:37:43.076Z,4.47
2018-01-30T19:40:11.650Z,5.30
2018-01-30T19:42:39.163Z,4.70
2018-01-30T19:45:06.728Z,6.00
2018-01-30T19:47:34.295Z,7.30
2018-01-30T19:50:01.831Z,6.87
2018-01-30T19:52:29.338Z,6.93
2018-01-30T19:54:57.827Z,7.30
2018-01-30T19:57:25.334Z,7.00
2018-01-30T19:59:52.862Z,8.13
2018-01-30T20:02:20.384Z,7.27
2018-01-30T20:04:47.988Z,9.30
2018-01-30T20:07:15.487Z,8.20
2018-01-30T20:09:42.984Z,8.80
2018-01-30T20:12:10.715Z,9.07
2018-01-30T20:14:38.247Z,9.80
2018-01-30T20:17:05.890Z,9.63
2018-01-30T20:19:33.388Z,12.17
2018-01-30T20:22:01.153Z,10.30
2018-01-30T20:24:28.764Z,11.83
2018-01-30T20:26:56.271Z,11.97
2018-01-30T20:29:23.786Z,13.20
2018-01-30T20:31:51.303Z,12.60
2018-01-30T20:36:52.907Z,11.20
2018-01-30T20:39:20.410Z,12.00
2018-01-30T20:41:48.167Z,12.03
2018-01-30T20:44:15.673Z,12.37
2018-01-30T20:46:43.399Z,10.90
2018-01-30T20:49:10.896Z,9.80
2018-01-30T20:51:38.401Z,13.00
2018-01-30T20:54:06.062Z,13.20
2018-01-30T20:56:33.651Z,11.20
2018-01-30T20:59:01.284Z,11.57
2018-01-30T21:01:28.799Z,13.47
2018-01-30T21:03:56.308Z,12.70
2018-01-30T21:06:23.960Z,13.30
2018-01-30T21:08:51.578Z,14.40
2018-01-30T21:11:19.184Z,16.23
2018-01-30T21:13:47.586Z,16.20
2018-01-30T21:16:15.100Z,15.97
2018-01-30T21:18:42.650Z,13.43
2018-01-30T21:21:10.103Z,11.87
2018-01-30T21:23:37.657Z,13.93
2018-01-30T21:26:05.175Z,12.03
2018-01-30T21:28:32.694Z,15.60
2018-01-30T21:31:00.394Z,15.80
2018-01-30T21:33:27.920Z,15.73
2018-01-30T21:35:55.481Z,14.10
2018-01-30T21:38:22.988Z,13.53
2018-01-30T21:40:50.486Z,15.27
2018-01-30T21:43:18.031Z,14.30
2018-01-30T21:45:45.556Z,14.57
2018-01-30T21:48:13.834Z,15.00
2018-01-30T21:50:41.342Z,14.73
2018-01-30T21:53:08.851Z,14.53
2018-01-30T21:55:37.127Z,15.60
2018-01-30T21:58:04.665Z,15.77
2018-01-30T22:00:32.214Z,15.37
2018-01-30T22:02:59.725Z,15.40
2018-01-30T22:05:27.515Z,18.00
2018-01-30T22:07:55.024Z,17.97
2018-01-30T22:10:22.527Z,17.87
2018-01-30T22:12:50.045Z,17.13
2018-01-30T22:15:18.583Z,19.73
2018-01-30T22:17:46.079Z,20.23
2018-01-30T22:20:13.594Z,19.87
2018-01-30T22:22:41.107Z,20.17
2018-01-30T22:25:08.684Z,19.73
2018-01-30T22:27:37.157Z,20.60
2018-01-30T22:30:04.854Z,21.50
2018-01-30T22:32:32.351Z,23.67
2018-01-30T22:35:00.783Z,22.00
2018-01-30T22:37:28.292Z,21.70
2018-01-30T22:39:56.829Z,21.43
2018-01-30T22:42:24.470Z,22.00
2018-01-30T22:44:52.095Z,22.50
